sensor_id;sensor_type;location;lat;lon;timestamp;P1;durP1;ratioP1;P2;durP2;ratioP2
54121;SDS011;40029;58.708;50.190;2022-08-21T00:01:20;5.75;;;3.80;;
54121;SDS011;40029;58.708;50.190;2022-08-21T00:03:53;7.72;;;3.42;;
54121;SDS011;40029;58.708;50.190;2022-08-21T00:06:25;8.07;;;4.55;;
54121;SDS011;40029;58.708;50.190;2022-08-21T00:08:56;7.20;;;3.72;;
54121;SDS011;40029;58.708;50.190;2022-08-21T00:11:27;13.23;;;3.72;;
54121;SDS011;40029;58.708;50.190;2022-08-21T00:13:58;11.65;;;3.60;;
54121;SDS011;40029;58.708;50.190;2022-08-21T00:16:29;5.93;;;3.25;;
54121;SDS011;40029;58.708;50.190;2022-08-21T00:19:00;5.97;;;3.50;;
54121;SDS011;40029;58.708;50.190;2022-08-21T00:21:32;5.38;;;3.55;;
54121;SDS011;40029;58.708;50.190;2022-08-21T00:24:05;5.45;;;3.72;;
54121;SDS011;40029;58.708;50.190;2022-08-21T00:26:36;7.03;;;3.80;;
54121;SDS011;40029;58.708;50.190;2022-08-21T00:29:07;10.25;;;3.63;;
54121;SDS011;40029;58.708;50.190;2022-08-21T00:31:39;7.30;;;3.97;;
54121;SDS011;40029;58.708;50.190;2022-08-21T00:34:10;6.95;;;3.67;;
54121;SDS011;40029;58.708;50.190;2022-08-21T00:36:43;7.63;;;3.70;;
54121;SDS011;40029;58.708;50.190;2022-08-21T00:39:13;5.25;;;3.72;;
54121;SDS011;40029;58.708;50.190;2022-08-21T00:41:44;6.45;;;3.42;;
54121;SDS011;40029;58.708;50.190;2022-08-21T00:44:16;6.30;;;3.55;;
54121;SDS011;40029;58.708;50.190;2022-08-21T00:46:47;4.82;;;3.75;;
54121;SDS011;40029;58.708;50.190;2022-08-21T00:49:18;7.60;;;4.00;;
54121;SDS011;40029;58.708;50.190;2022-08-21T00:51:51;6.20;;;3.58;;
54121;SDS011;40029;58.708;50.190;2022-08-21T00:54:26;11.00;;;3.60;;
54121;SDS011;40029;58.708;50.190;2022-08-21T00:57:02;7.40;;;3.83;;
54121;SDS011;40029;58.708;50.190;2022-08-21T00:59:37;8.25;;;3.90;;
54121;SDS011;40029;58.708;50.190;2022-08-21T01:02:11;6.25;;;3.83;;
54121;SDS011;40029;58.708;50.190;2022-08-21T01:04:42;3.95;;;3.53;;
54121;SDS011;40029;58.708;50.190;2022-08-21T01:07:14;10.25;;;3.70;;
54121;SDS011;40029;58.708;50.190;2022-08-21T01:09:46;5.13;;;3.55;;
54121;SDS011;40029;58.708;50.190;2022-08-21T01:12:18;4.75;;;4.22;;
54121;SDS011;40029;58.708;50.190;2022-08-21T01:14:49;7.32;;;3.20;;
54121;SDS011;40029;58.708;50.190;2022-08-21T01:17:20;6.28;;;3.65;;
54121;SDS011;40029;58.708;50.190;2022-08-21T01:19:53;10.80;;;3.90;;
54121;SDS011;40029;58.708;50.190;2022-08-21T01:22:27;6.95;;;3.92;;
54121;SDS011;40029;58.708;50.190;2022-08-21T01:24:58;8.23;;;4.07;;
54121;SDS011;40029;58.708;50.190;2022-08-21T01:27:29;6.50;;;4.10;;
54121;SDS011;40029;58.708;50.190;2022-08-21T01:30:03;5.55;;;3.67;;
54121;SDS011;40029;58.708;50.190;2022-08-21T01:32:40;5.40;;;3.88;;
54121;SDS011;40029;58.708;50.190;2022-08-21T01:35:12;6.30;;;4.07;;
54121;SDS011;40029;58.708;50.190;2022-08-21T01:37:45;8.15;;;4.10;;
54121;SDS011;40029;58.708;50.190;2022-08-21T01:40:18;5.35;;;3.85;;
54121;SDS011;40029;58.708;50.190;2022-08-21T01:42:57;5.40;;;4.03;;
54121;SDS011;40029;58.708;50.190;2022-08-21T01:45:31;8.35;;;4.43;;
54121;SDS011;40029;58.708;50.190;2022-08-21T01:48:17;4.78;;;3.72;;
54121;SDS011;40029;58.708;50.190;2022-08-21T01:50:48;7.60;;;3.75;;
54121;SDS011;40029;58.708;50.190;2022-08-21T01:56:24;4.72;;;3.30;;
54121;SDS011;40029;58.708;50.190;2022-08-21T01:59:18;6.95;;;4.15;;
54121;SDS011;40029;58.708;50.190;2022-08-21T02:02:03;7.45;;;3.63;;
54121;SDS011;40029;58.708;50.190;2022-08-21T02:04:49;3.80;;;3.50;;
54121;SDS011;40029;58.708;50.190;2022-08-21T02:10:30;12.18;;;4.82;;
54121;SDS011;40029;58.708;50.190;2022-08-21T02:13:05;6.65;;;3.70;;
54121;SDS011;40029;58.708;50.190;2022-08-21T02:15:57;6.22;;;3.45;;
54121;SDS011;40029;58.708;50.190;2022-08-21T02:18:41;4.13;;;3.70;;
54121;SDS011;40029;58.708;50.190;2022-08-21T02:21:23;5.43;;;3.75;;
54121;SDS011;40029;58.708;50.190;2022-08-21T02:24:14;8.18;;;3.42;;
54121;SDS011;40029;58.708;50.190;2022-08-21T02:26:48;6.57;;;3.75;;
54121;SDS011;40029;58.708;50.190;2022-08-21T02:29:32;8.02;;;3.40;;
54121;SDS011;40029;58.708;50.190;2022-08-21T02:32:13;8.57;;;3.58;;
54121;SDS011;40029;58.708;50.190;2022-08-21T02:35:06;6.53;;;3.78;;
54121;SDS011;40029;58.708;50.190;2022-08-21T02:37:52;14.88;;;3.65;;
54121;SDS011;40029;58.708;50.190;2022-08-21T02:40:36;6.55;;;3.83;;
54121;SDS011;40029;58.708;50.190;2022-08-21T02:43:10;8.43;;;3.60;;
54121;SDS011;40029;58.708;50.190;2022-08-21T02:46:00;8.70;;;3.88;;
54121;SDS011;40029;58.708;50.190;2022-08-21T02:48:34;7.55;;;4.00;;
54121;SDS011;40029;58.708;50.190;2022-08-21T02:51:07;6.82;;;4.80;;
54121;SDS011;40029;58.708;50.190;2022-08-21T02:53:53;6.07;;;5.07;;
54121;SDS011;40029;58.708;50.190;2022-08-21T02:56:31;11.05;;;6.40;;
54121;SDS011;40029;58.708;50.190;2022-08-21T02:59:19;14.95;;;6.05;;
54121;SDS011;40029;58.708;50.190;2022-08-21T03:02:03;12.77;;;5.93;;
54121;SDS011;40029;58.708;50.190;2022-08-21T03:04:37;10.60;;;6.60;;
54121;SDS011;40029;58.708;50.190;2022-08-21T03:07:17;12.82;;;7.60;;
54121;SDS011;40029;58.708;50.190;2022-08-21T03:09:48;14.27;;;7.78;;
54121;SDS011;40029;58.708;50.190;2022-08-21T03:12:22;9.30;;;6.78;;
54121;SDS011;40029;58.708;50.190;2022-08-21T03:14:58;12.20;;;6.20;;
54121;SDS011;40029;58.708;50.190;2022-08-21T03:17:35;10.48;;;6.25;;
54121;SDS011;40029;58.708;50.190;2022-08-21T03:20:17;14.10;;;6.90;;
54121;SDS011;40029;58.708;50.190;2022-08-21T03:23:03;15.27;;;6.80;;
54121;SDS011;40029;58.708;50.190;2022-08-21T03:25:48;9.95;;;6.90;;
54121;SDS011;40029;58.708;50.190;2022-08-21T03:28:24;15.00;;;8.60;;
54121;SDS011;40029;58.708;50.190;2022-08-21T03:30:56;17.25;;;10.23;;
54121;SDS011;40029;58.708;50.190;2022-08-21T03:33:35;18.10;;;8.77;;
54121;SDS011;40029;58.708;50.190;2022-08-21T03:36:15;19.25;;;11.40;;
54121;SDS011;40029;58.708;50.190;2022-08-21T03:38:55;21.55;;;10.43;;
54121;SDS011;40029;58.708;50.190;2022-08-21T03:42:04;21.05;;;10.02;;
54121;SDS011;40029;58.708;50.190;2022-08-21T03:44:53;14.85;;;9.32;;
54121;SDS011;40029;58.708;50.190;2022-08-21T03:47:25;20.00;;;9.75;;
54121;SDS011;40029;58.708;50.190;2022-08-21T03:52:46;22.23;;;10.95;;
54121;SDS011;40029;58.708;50.190;2022-08-21T03:55:21;23.70;;;12.20;;
54121;SDS011;40029;58.708;50.190;2022-08-21T03:58:24;21.48;;;11.02;;
54121;SDS011;40029;58.708;50.190;2022-08-21T04:01:07;16.98;;;9.35;;
54121;SDS011;40029;58.708;50.190;2022-08-21T04:03:42;12.45;;;5.95;;
54121;SDS011;40029;58.708;50.190;2022-08-21T04:06:13;9.10;;;5.60;;
54121;SDS011;40029;58.708;50.190;2022-08-21T04:08:55;20.13;;;10.52;;
54121;SDS011;40029;58.708;50.190;2022-08-21T04:11:35;13.07;;;8.93;;
54121;SDS011;40029;58.708;50.190;2022-08-21T04:14:10;12.35;;;7.10;;
54121;SDS011;40029;58.708;50.190;2022-08-21T04:16:48;14.70;;;9.65;;
54121;SDS011;40029;58.708;50.190;2022-08-21T04:19:27;14.25;;;8.60;;
54121;SDS011;40029;58.708;50.190;2022-08-21T04:22:12;17.42;;;9.82;;
54121;SDS011;40029;58.708;50.190;2022-08-21T04:24:57;14.55;;;9.18;;
54121;SDS011;40029;58.708;50.190;2022-08-21T04:27:29;19.85;;;8.80;;
54121;SDS011;40029;58.708;50.190;2022-08-21T04:30:04;6.45;;;4.72;;
54121;SDS011;40029;58.708;50.190;2022-08-21T04:32:41;9.52;;;4.22;;
54121;SDS011;40029;58.708;50.190;2022-08-21T04:35:21;4.28;;;3.60;;
54121;SDS011;40029;58.708;50.190;2022-08-21T04:37:57;6.38;;;3.45;;
54121;SDS011;40029;58.708;50.190;2022-08-21T04:40:36;6.55;;;3.20;;
54121;SDS011;40029;58.708;50.190;2022-08-21T04:43:18;5.25;;;2.42;;
54121;SDS011;40029;58.708;50.190;2022-08-21T04:46:00;6.13;;;3.00;;
54121;SDS011;40029;58.708;50.190;2022-08-21T04:48:33;5.00;;;2.90;;
54121;SDS011;40029;58.708;50.190;2022-08-21T04:51:09;4.53;;;2.83;;
54121;SDS011;40029;58.708;50.190;2022-08-21T04:53:53;5.50;;;2.97;;
54121;SDS011;40029;58.708;50.190;2022-08-21T04:56:32;5.10;;;3.35;;
54121;SDS011;40029;58.708;50.190;2022-08-21T04:59:12;4.75;;;2.95;;
54121;SDS011;40029;58.708;50.190;2022-08-21T05:01:46;4.40;;;2.20;;
54121;SDS011;40029;58.708;50.190;2022-08-21T05:04:24;8.73;;;2.92;;
54121;SDS011;40029;58.708;50.190;2022-08-21T05:07:12;10.00;;;6.90;;
54121;SDS011;40029;58.708;50.190;2022-08-21T05:10:23;3.97;;;2.45;;
54121;SDS011;40029;58.708;50.190;2022-08-21T05:13:05;6.30;;;2.63;;
54121;SDS011;40029;58.708;50.190;2022-08-21T05:15:49;6.65;;;3.85;;
54121;SDS011;40029;58.708;50.190;2022-08-21T05:18:35;5.00;;;3.05;;
54121;SDS011;40029;58.708;50.190;2022-08-21T05:21:15;8.25;;;2.40;;
54121;SDS011;40029;58.708;50.190;2022-08-21T05:23:47;4.18;;;2.50;;
54121;SDS011;40029;58.708;50.190;2022-08-21T05:26:28;4.70;;;2.67;;
54121;SDS011;40029;58.708;50.190;2022-08-21T05:29:02;6.22;;;2.15;;
54121;SDS011;40029;58.708;50.190;2022-08-21T05:31:39;6.28;;;2.63;;
54121;SDS011;40029;58.708;50.190;2022-08-21T05:34:17;2.50;;;2.10;;
54121;SDS011;40029;58.708;50.190;2022-08-21T05:36:54;2.58;;;2.20;;
54121;SDS011;40029;58.708;50.190;2022-08-21T05:39:28;6.40;;;3.85;;
54121;SDS011;40029;58.708;50.190;2022-08-21T05:42:25;9.32;;;2.33;;
54121;SDS011;40029;58.708;50.190;2022-08-21T05:45:12;4.28;;;2.20;;
54121;SDS011;40029;58.708;50.190;2022-08-21T05:47:43;2.42;;;1.88;;
54121;SDS011;40029;58.708;50.190;2022-08-21T05:50:14;3.80;;;1.83;;
54121;SDS011;40029;58.708;50.190;2022-08-21T05:52:45;2.33;;;1.85;;
54121;SDS011;40029;58.708;50.190;2022-08-21T05:55:17;5.55;;;2.35;;
54121;SDS011;40029;58.708;50.190;2022-08-21T05:57:48;2.55;;;2.00;;
54121;SDS011;40029;58.708;50.190;2022-08-21T06:00:19;7.78;;;3.38;;
54121;SDS011;40029;58.708;50.190;2022-08-21T06:02:49;5.45;;;3.90;;
54121;SDS011;40029;58.708;50.190;2022-08-21T06:05:21;11.40;;;3.85;;
54121;SDS011;40029;58.708;50.190;2022-08-21T06:07:52;9.75;;;2.90;;
54121;SDS011;40029;58.708;50.190;2022-08-21T06:10:23;4.45;;;2.33;;
54121;SDS011;40029;58.708;50.190;2022-08-21T06:12:54;11.75;;;6.82;;
54121;SDS011;40029;58.708;50.190;2022-08-21T06:15:25;10.48;;;4.00;;
54121;SDS011;40029;58.708;50.190;2022-08-21T06:17:59;5.73;;;5.00;;
54121;SDS011;40029;58.708;50.190;2022-08-21T06:20:30;3.22;;;2.17;;
54121;SDS011;40029;58.708;50.190;2022-08-21T06:23:03;3.97;;;1.95;;
54121;SDS011;40029;58.708;50.190;2022-08-21T06:25:34;4.18;;;1.88;;
54121;SDS011;40029;58.708;50.190;2022-08-21T06:28:07;5.18;;;2.42;;
54121;SDS011;40029;58.708;50.190;2022-08-21T06:30:42;5.15;;;2.25;;
54121;SDS011;40029;58.708;50.190;2022-08-21T06:33:13;6.75;;;1.80;;
54121;SDS011;40029;58.708;50.190;2022-08-21T06:35:44;2.67;;;1.90;;
54121;SDS011;40029;58.708;50.190;2022-08-21T06:38:16;2.70;;;1.65;;
54121;SDS011;40029;58.708;50.190;2022-08-21T06:40:47;3.47;;;1.98;;
54121;SDS011;40029;58.708;50.190;2022-08-21T06:43:18;5.80;;;2.05;;
54121;SDS011;40029;58.708;50.190;2022-08-21T06:45:49;3.35;;;1.88;;
54121;SDS011;40029;58.708;50.190;2022-08-21T06:48:20;4.63;;;1.98;;
54121;SDS011;40029;58.708;50.190;2022-08-21T06:50:51;2.58;;;1.92;;
54121;SDS011;40029;58.708;50.190;2022-08-21T06:53:24;2.67;;;1.85;;
54121;SDS011;40029;58.708;50.190;2022-08-21T06:55:55;12.93;;;2.13;;
54121;SDS011;40029;58.708;50.190;2022-08-21T06:58:26;2.30;;;1.70;;
54121;SDS011;40029;58.708;50.190;2022-08-21T07:00:57;38.97;;;18.27;;
54121;SDS011;40029;58.708;50.190;2022-08-21T07:03:34;7.10;;;2.95;;
54121;SDS011;40029;58.708;50.190;2022-08-21T07:06:10;4.57;;;2.72;;
54121;SDS011;40029;58.708;50.190;2022-08-21T07:08:41;2.92;;;2.45;;
54121;SDS011;40029;58.708;50.190;2022-08-21T07:11:14;3.35;;;2.55;;
54121;SDS011;40029;58.708;50.190;2022-08-21T07:13:49;3.70;;;1.90;;
54121;SDS011;40029;58.708;50.190;2022-08-21T07:16:23;3.08;;;2.47;;
54121;SDS011;40029;58.708;50.190;2022-08-21T07:18:54;3.00;;;2.70;;
54121;SDS011;40029;58.708;50.190;2022-08-21T07:21:25;5.07;;;2.60;;
54121;SDS011;40029;58.708;50.190;2022-08-21T07:23:56;11.68;;;2.90;;
54121;SDS011;40029;58.708;50.190;2022-08-21T07:26:28;4.05;;;3.28;;
54121;SDS011;40029;58.708;50.190;2022-08-21T07:28:59;5.38;;;3.00;;
54121;SDS011;40029;58.708;50.190;2022-08-21T07:31:30;6.10;;;3.00;;
54121;SDS011;40029;58.708;50.190;2022-08-21T07:34:02;4.35;;;2.70;;
54121;SDS011;40029;58.708;50.190;2022-08-21T07:36:33;5.07;;;2.80;;
54121;SDS011;40029;58.708;50.190;2022-08-21T07:39:04;9.60;;;2.92;;
54121;SDS011;40029;58.708;50.190;2022-08-21T07:41:35;6.80;;;2.92;;
54121;SDS011;40029;58.708;50.190;2022-08-21T07:44:08;11.75;;;2.92;;
54121;SDS011;40029;58.708;50.190;2022-08-21T07:46:39;4.90;;;3.10;;
54121;SDS011;40029;58.708;50.190;2022-08-21T07:49:10;10.13;;;3.17;;
54121;SDS011;40029;58.708;50.190;2022-08-21T07:51:41;4.90;;;2.97;;
54121;SDS011;40029;58.708;50.190;2022-08-21T07:54:12;7.28;;;3.25;;
54121;SDS011;40029;58.708;50.190;2022-08-21T07:56:43;8.30;;;2.95;;
54121;SDS011;40029;58.708;50.190;2022-08-21T07:59:15;7.28;;;2.72;;
54121;SDS011;40029;58.708;50.190;2022-08-21T08:01:46;9.35;;;4.28;;
54121;SDS011;40029;58.708;50.190;2022-08-21T08:04:17;6.07;;;3.10;;
54121;SDS011;40029;58.708;50.190;2022-08-21T08:06:48;8.57;;;3.05;;
54121;SDS011;40029;58.708;50.190;2022-08-21T08:09:19;10.55;;;2.80;;
54121;SDS011;40029;58.708;50.190;2022-08-21T08:11:50;4.68;;;3.00;;
54121;SDS011;40029;58.708;50.190;2022-08-21T08:14:21;7.85;;;5.05;;
54121;SDS011;40029;58.708;50.190;2022-08-21T08:16:53;2.83;;;2.42;;
54121;SDS011;40029;58.708;50.190;2022-08-21T08:19:25;6.38;;;2.65;;
54121;SDS011;40029;58.708;50.190;2022-08-21T08:21:55;3.67;;;3.05;;
54121;SDS011;40029;58.708;50.190;2022-08-21T08:24:27;6.20;;;3.55;;
54121;SDS011;40029;58.708;50.190;2022-08-21T08:26:57;4.00;;;2.40;;
54121;SDS011;40029;58.708;50.190;2022-08-21T08:29:29;7.15;;;5.47;;
54121;SDS011;40029;58.708;50.190;2022-08-21T08:32:01;5.95;;;4.72;;
54121;SDS011;40029;58.708;50.190;2022-08-21T08:34:34;18.67;;;5.22;;
54121;SDS011;40029;58.708;50.190;2022-08-21T08:37:06;3.42;;;2.53;;
54121;SDS011;40029;58.708;50.190;2022-08-21T08:39:39;11.15;;;2.53;;
54121;SDS011;40029;58.708;50.190;2022-08-21T08:45:13;2.60;;;1.80;;
54121;SDS011;40029;58.708;50.190;2022-08-21T08:47:49;2.35;;;1.83;;
54121;SDS011;40029;58.708;50.190;2022-08-21T08:53:15;3.03;;;2.63;;
54121;SDS011;40029;58.708;50.190;2022-08-21T08:55:51;3.63;;;3.13;;
54121;SDS011;40029;58.708;50.190;2022-08-21T08:58:33;4.95;;;2.92;;
54121;SDS011;40029;58.708;50.190;2022-08-21T09:01:12;5.28;;;1.52;;
54121;SDS011;40029;58.708;50.190;2022-08-21T09:03:47;5.30;;;1.70;;
54121;SDS011;40029;58.708;50.190;2022-08-21T09:17:59;3.38;;;2.58;;
54121;SDS011;40029;58.708;50.190;2022-08-21T09:24:10;3.45;;;1.80;;
54121;SDS011;40029;58.708;50.190;2022-08-21T09:27:16;9.18;;;3.35;;
54121;SDS011;40029;58.708;50.190;2022-08-21T09:29:43;5.22;;;2.53;;
54121;SDS011;40029;58.708;50.190;2022-08-21T09:32:18;11.05;;;3.55;;
54121;SDS011;40029;58.708;50.190;2022-08-21T09:35:13;3.92;;;2.33;;
54121;SDS011;40029;58.708;50.190;2022-08-21T09:45:42;5.18;;;2.97;;
54121;SDS011;40029;58.708;50.190;2022-08-21T09:48:15;6.45;;;1.70;;
54121;SDS011;40029;58.708;50.190;2022-08-21T09:50:50;6.55;;;2.03;;
54121;SDS011;40029;58.708;50.190;2022-08-21T09:53:26;4.47;;;1.73;;
54121;SDS011;40029;58.708;50.190;2022-08-21T09:55:59;6.00;;;3.05;;
54121;SDS011;40029;58.708;50.190;2022-08-21T09:58:53;3.33;;;1.63;;
54121;SDS011;40029;58.708;50.190;2022-08-21T10:01:25;4.55;;;1.75;;
54121;SDS011;40029;58.708;50.190;2022-08-21T10:04:09;3.70;;;1.58;;
54121;SDS011;40029;58.708;50.190;2022-08-21T10:06:41;8.43;;;1.95;;
54121;SDS011;40029;58.708;50.190;2022-08-21T10:09:13;3.83;;;1.52;;
54121;SDS011;40029;58.708;50.190;2022-08-21T10:17:48;2.22;;;1.83;;
54121;SDS011;40029;58.708;50.190;2022-08-21T10:20:36;3.15;;;1.70;;
54121;SDS011;40029;58.708;50.190;2022-08-21T10:23:20;24.63;;;3.30;;
54121;SDS011;40029;58.708;50.190;2022-08-21T10:35:33;2.58;;;1.50;;
54121;SDS011;40029;58.708;50.190;2022-08-21T10:41:22;5.28;;;1.90;;
54121;SDS011;40029;58.708;50.190;2022-08-21T10:44:45;4.28;;;1.50;;
54121;SDS011;40029;58.708;50.190;2022-08-21T10:47:24;2.10;;;1.40;;
54121;SDS011;40029;58.708;50.190;2022-08-21T10:55:55;3.60;;;1.80;;
54121;SDS011;40029;58.708;50.190;2022-08-21T10:58:33;9.40;;;2.35;;
54121;SDS011;40029;58.708;50.190;2022-08-21T11:01:23;1.77;;;1.40;;
54121;SDS011;40029;58.708;50.190;2022-08-21T11:06:42;1.92;;;1.52;;
54121;SDS011;40029;58.708;50.190;2022-08-21T11:09:20;3.58;;;1.90;;
54121;SDS011;40029;58.708;50.190;2022-08-21T11:11:56;2.90;;;1.77;;
54121;SDS011;40029;58.708;50.190;2022-08-21T11:14:46;2.00;;;1.63;;
54121;SDS011;40029;58.708;50.190;2022-08-21T11:17:38;3.85;;;1.98;;
54121;SDS011;40029;58.708;50.190;2022-08-21T11:20:15;4.63;;;2.10;;
54121;SDS011;40029;58.708;50.190;2022-08-21T11:23:18;11.73;;;7.32;;
54121;SDS011;40029;58.708;50.190;2022-08-21T11:26:00;6.97;;;2.28;;
54121;SDS011;40029;58.708;50.190;2022-08-21T11:28:44;3.45;;;2.65;;
54121;SDS011;40029;58.708;50.190;2022-08-21T11:37:01;2.10;;;1.73;;
54121;SDS011;40029;58.708;50.190;2022-08-21T11:39:57;3.72;;;1.75;;
54121;SDS011;40029;58.708;50.190;2022-08-21T11:51:11;2.25;;;1.88;;
54121;SDS011;40029;58.708;50.190;2022-08-21T11:53:49;1.70;;;1.52;;
54121;SDS011;40029;58.708;50.190;2022-08-21T11:56:41;3.75;;;2.20;;
54121;SDS011;40029;58.708;50.190;2022-08-21T11:59:22;1.85;;;1.70;;
54121;SDS011;40029;58.708;50.190;2022-08-21T12:01:59;1.80;;;1.65;;
54121;SDS011;40029;58.708;50.190;2022-08-21T12:04:32;2.10;;;1.90;;
54121;SDS011;40029;58.708;50.190;2022-08-21T12:07:14;2.88;;;1.92;;
54121;SDS011;40029;58.708;50.190;2022-08-21T12:09:58;2.83;;;2.30;;
54121;SDS011;40029;58.708;50.190;2022-08-21T12:12:32;4.75;;;2.67;;
54121;SDS011;40029;58.708;50.190;2022-08-21T12:26:29;3.70;;;2.55;;
54121;SDS011;40029;58.708;50.190;2022-08-21T12:29:04;2.80;;;1.60;;
54121;SDS011;40029;58.708;50.190;2022-08-21T12:32:42;3.58;;;1.92;;
54121;SDS011;40029;58.708;50.190;2022-08-21T12:34:46;2.95;;;2.25;;
54121;SDS011;40029;58.708;50.190;2022-08-21T12:37:38;2.58;;;2.38;;
54121;SDS011;40029;58.708;50.190;2022-08-21T12:42:49;3.17;;;2.17;;
54121;SDS011;40029;58.708;50.190;2022-08-21T12:45:28;2.17;;;1.98;;
54121;SDS011;40029;58.708;50.190;2022-08-21T12:48:10;6.07;;;2.00;;
54121;SDS011;40029;58.708;50.190;2022-08-21T12:50:53;2.97;;;2.65;;
54121;SDS011;40029;58.708;50.190;2022-08-21T12:56:09;6.03;;;2.60;;
54121;SDS011;40029;58.708;50.190;2022-08-21T12:59:00;9.98;;;3.88;;
54121;SDS011;40029;58.708;50.190;2022-08-21T13:01:46;12.98;;;5.38;;
54121;SDS011;40029;58.708;50.190;2022-08-21T13:04:39;5.68;;;3.83;;
54121;SDS011;40029;58.708;50.190;2022-08-21T13:07:13;15.52;;;3.92;;
54121;SDS011;40029;58.708;50.190;2022-08-21T13:09:51;3.92;;;2.13;;
54121;SDS011;40029;58.708;50.190;2022-08-21T13:12:25;2.72;;;2.22;;
54121;SDS011;40029;58.708;50.190;2022-08-21T13:14:58;4.82;;;2.75;;
54121;SDS011;40029;58.708;50.190;2022-08-21T13:17:35;3.50;;;2.13;;
54121;SDS011;40029;58.708;50.190;2022-08-21T13:20:10;4.10;;;2.20;;
54121;SDS011;40029;58.708;50.190;2022-08-21T13:22:52;8.52;;;2.20;;
54121;SDS011;40029;58.708;50.190;2022-08-21T13:25:27;2.28;;;1.95;;
54121;SDS011;40029;58.708;50.190;2022-08-21T13:28:07;3.35;;;1.70;;
54121;SDS011;40029;58.708;50.190;2022-08-21T13:30:46;10.75;;;2.72;;
54121;SDS011;40029;58.708;50.190;2022-08-21T13:33:21;7.32;;;3.35;;
54121;SDS011;40029;58.708;50.190;2022-08-21T13:38:29;4.45;;;2.17;;
54121;SDS011;40029;58.708;50.190;2022-08-21T13:41:05;3.33;;;1.90;;
54121;SDS011;40029;58.708;50.190;2022-08-21T13:43:59;2.78;;;1.85;;
54121;SDS011;40029;58.708;50.190;2022-08-21T13:46:35;9.57;;;2.38;;
54121;SDS011;40029;58.708;50.190;2022-08-21T13:49:07;4.45;;;2.00;;
54121;SDS011;40029;58.708;50.190;2022-08-21T13:51:40;5.88;;;2.58;;
54121;SDS011;40029;58.708;50.190;2022-08-21T13:57:16;3.22;;;2.22;;
54121;SDS011;40029;58.708;50.190;2022-08-21T14:00:09;7.07;;;1.67;;
54121;SDS011;40029;58.708;50.190;2022-08-21T14:02:43;8.07;;;2.70;;
54121;SDS011;40029;58.708;50.190;2022-08-21T14:08:47;8.52;;;2.63;;
54121;SDS011;40029;58.708;50.190;2022-08-21T14:11:12;5.93;;;2.80;;
54121;SDS011;40029;58.708;50.190;2022-08-21T14:13:45;8.00;;;2.22;;
54121;SDS011;40029;58.708;50.190;2022-08-21T14:16:21;19.77;;;12.43;;
54121;SDS011;40029;58.708;50.190;2022-08-21T14:21:38;8.07;;;7.22;;
54121;SDS011;40029;58.708;50.190;2022-08-21T14:24:25;8.65;;;7.57;;
54121;SDS011;40029;58.708;50.190;2022-08-21T14:27:05;9.00;;;2.20;;
54121;SDS011;40029;58.708;50.190;2022-08-21T14:29:39;9.27;;;2.80;;
54121;SDS011;40029;58.708;50.190;2022-08-21T14:34:45;9.85;;;5.55;;
54121;SDS011;40029;58.708;50.190;2022-08-21T14:37:16;5.40;;;3.35;;
54121;SDS011;40029;58.708;50.190;2022-08-21T14:39:47;14.80;;;5.40;;
54121;SDS011;40029;58.708;50.190;2022-08-21T14:42:18;4.82;;;2.58;;
54121;SDS011;40029;58.708;50.190;2022-08-21T14:44:50;6.70;;;2.15;;
54121;SDS011;40029;58.708;50.190;2022-08-21T14:47:21;6.47;;;2.42;;
54121;SDS011;40029;58.708;50.190;2022-08-21T14:49:52;6.63;;;3.20;;
54121;SDS011;40029;58.708;50.190;2022-08-21T14:52:24;7.68;;;4.53;;
54121;SDS011;40029;58.708;50.190;2022-08-21T14:54:55;7.80;;;4.88;;
54121;SDS011;40029;58.708;50.190;2022-08-21T14:57:26;11.48;;;4.75;;
54121;SDS011;40029;58.708;50.190;2022-08-21T15:00:01;10.50;;;4.80;;
54121;SDS011;40029;58.708;50.190;2022-08-21T15:02:34;12.35;;;5.85;;
54121;SDS011;40029;58.708;50.190;2022-08-21T15:05:05;21.92;;;8.00;;
54121;SDS011;40029;58.708;50.190;2022-08-21T15:07:36;12.05;;;7.00;;
54121;SDS011;40029;58.708;50.190;2022-08-21T15:10:08;34.75;;;20.23;;
54121;SDS011;40029;58.708;50.190;2022-08-21T15:12:40;19.50;;;10.98;;
54121;SDS011;40029;58.708;50.190;2022-08-21T15:15:11;27.50;;;8.43;;
54121;SDS011;40029;58.708;50.190;2022-08-21T15:17:42;26.33;;;8.63;;
54121;SDS011;40029;58.708;50.190;2022-08-21T15:20:13;24.45;;;12.75;;
54121;SDS011;40029;58.708;50.190;2022-08-21T15:22:45;23.55;;;10.45;;
54121;SDS011;40029;58.708;50.190;2022-08-21T15:25:16;23.90;;;13.40;;
54121;SDS011;40029;58.708;50.190;2022-08-21T15:27:47;26.92;;;13.90;;
54121;SDS011;40029;58.708;50.190;2022-08-21T15:30:18;44.40;;;15.15;;
54121;SDS011;40029;58.708;50.190;2022-08-21T15:32:49;34.03;;;17.23;;
54121;SDS011;40029;58.708;50.190;2022-08-21T15:35:20;36.03;;;17.77;;
54121;SDS011;40029;58.708;50.190;2022-08-21T15:37:51;30.65;;;14.10;;
54121;SDS011;40029;58.708;50.190;2022-08-21T15:40:22;35.35;;;18.50;;
54121;SDS011;40029;58.708;50.190;2022-08-21T15:42:56;107.35;;;61.63;;
54121;SDS011;40029;58.708;50.190;2022-08-21T15:45:29;47.05;;;16.50;;
54121;SDS011;40029;58.708;50.190;2022-08-21T15:48:01;44.55;;;21.80;;
54121;SDS011;40029;58.708;50.190;2022-08-21T15:50:32;41.92;;;21.20;;
54121;SDS011;40029;58.708;50.190;2022-08-21T15:53:03;46.38;;;21.77;;
54121;SDS011;40029;58.708;50.190;2022-08-21T15:55:34;49.17;;;23.73;;
54121;SDS011;40029;58.708;50.190;2022-08-21T15:58:05;60.88;;;23.15;;
54121;SDS011;40029;58.708;50.190;2022-08-21T16:00:37;116.97;;;26.17;;
54121;SDS011;40029;58.708;50.190;2022-08-21T16:03:08;71.47;;;23.48;;
54121;SDS011;40029;58.708;50.190;2022-08-21T16:05:43;76.65;;;24.17;;
54121;SDS011;40029;58.708;50.190;2022-08-21T16:08:15;62.22;;;27.08;;
54121;SDS011;40029;58.708;50.190;2022-08-21T16:10:47;76.85;;;25.90;;
54121;SDS011;40029;58.708;50.190;2022-08-21T16:13:29;83.95;;;30.10;;
54121;SDS011;40029;58.708;50.190;2022-08-21T16:16:07;50.10;;;23.65;;
54121;SDS011;40029;58.708;50.190;2022-08-21T16:18:38;79.45;;;25.60;;
54121;SDS011;40029;58.708;50.190;2022-08-21T16:21:10;91.53;;;25.48;;
54121;SDS011;40029;58.708;50.190;2022-08-21T16:23:41;107.57;;;23.73;;
54121;SDS011;40029;58.708;50.190;2022-08-21T16:26:13;85.68;;;20.02;;
54121;SDS011;40029;58.708;50.190;2022-08-21T16:28:45;119.50;;;19.52;;
54121;SDS011;40029;58.708;50.190;2022-08-21T16:31:21;115.07;;;22.52;;
54121;SDS011;40029;58.708;50.190;2022-08-21T16:33:54;97.53;;;26.92;;
54121;SDS011;40029;58.708;50.190;2022-08-21T16:36:26;90.78;;;30.10;;
54121;SDS011;40029;58.708;50.190;2022-08-21T16:38:58;93.70;;;29.23;;
54121;SDS011;40029;58.708;50.190;2022-08-21T16:41:32;86.65;;;29.35;;
54121;SDS011;40029;58.708;50.190;2022-08-21T16:44:04;71.78;;;31.20;;
54121;SDS011;40029;58.708;50.190;2022-08-21T16:46:37;90.85;;;34.55;;
54121;SDS011;40029;58.708;50.190;2022-08-21T16:49:10;92.78;;;36.53;;
54121;SDS011;40029;58.708;50.190;2022-08-21T16:51:41;114.97;;;36.30;;
54121;SDS011;40029;58.708;50.190;2022-08-21T16:54:12;107.43;;;40.67;;
54121;SDS011;40029;58.708;50.190;2022-08-21T16:56:44;122.45;;;44.58;;
54121;SDS011;40029;58.708;50.190;2022-08-21T16:59:15;137.05;;;60.83;;
54121;SDS011;40029;58.708;50.190;2022-08-21T17:01:46;143.52;;;59.15;;
54121;SDS011;40029;58.708;50.190;2022-08-21T17:04:17;135.48;;;54.80;;
54121;SDS011;40029;58.708;50.190;2022-08-21T17:06:50;99.53;;;35.25;;
54121;SDS011;40029;58.708;50.190;2022-08-21T17:09:22;129.32;;;52.40;;
54121;SDS011;40029;58.708;50.190;2022-08-21T17:11:53;92.30;;;31.00;;